createdAt,value
2022-12-14T00:03:07.003Z,2.47
2022-12-14T00:08:10.077Z,2.53
2022-12-14T00:13:15.957Z,2.60
2022-12-14T00:18:22.449Z,2.38
2022-12-14T00:23:25.523Z,2.60
2022-12-14T00:28:29.903Z,2.33
2022-12-14T00:33:33.256Z,2.58
2022-12-14T00:38:36.522Z,2.45
2022-12-14T00:43:41.293Z,2.47
2022-12-14T00:48:44.241Z,2.13
2022-12-14T00:53:47.260Z,2.28
2022-12-14T00:58:54.626Z,2.83
2022-12-14T01:04:17.200Z,2.60
2022-12-14T01:09:22.189Z,2.60
2022-12-14T01:14:26.360Z,2.65
2022-12-14T01:19:29.193Z,2.63
2022-12-14T01:24:32.037Z,2.60
2022-12-14T01:29:36.910Z,2.40
2022-12-14T01:34:39.756Z,2.50
2022-12-14T01:39:42.568Z,2.38
2022-12-14T01:44:56.149Z,2.42
2022-12-14T01:50:03.188Z,2.58
2022-12-14T01:55:10.436Z,2.50
2022-12-14T02:00:16.772Z,2.20
2022-12-14T02:05:22.477Z,2.78
2022-12-14T02:10:28.478Z,2.55
2022-12-14T02:15:34.702Z,2.25
2022-12-14T02:20:59.456Z,2.65
2022-12-14T02:26:35.369Z,2.40
2022-12-14T02:31:46.508Z,2.30
2022-12-14T02:36:58.944Z,2.40
2022-12-14T02:42:09.299Z,2.78
2022-12-14T02:47:17.164Z,2.40
2022-12-14T02:52:29.044Z,2.42
2022-12-14T02:57:37.611Z,2.67
2022-12-14T03:02:44.677Z,2.80
2022-12-14T03:07:50.372Z,2.47
2022-12-14T03:12:58.903Z,2.38
2022-12-14T03:18:06.763Z,2.53
2022-12-14T03:23:13.542Z,2.33
2022-12-14T03:28:20.842Z,2.92
2022-12-14T03:33:28.808Z,2.30
2022-12-14T03:38:36.852Z,2.60
2022-12-14T03:43:51.113Z,2.60
2022-12-14T03:49:00.408Z,2.60
2022-12-14T03:54:09.707Z,2.60
2022-12-14T03:59:16.277Z,2.50
2022-12-14T04:04:27.737Z,2.65
2022-12-14T04:09:36.391Z,2.53
2022-12-14T04:15:02.797Z,2.67
2022-12-14T04:20:12.427Z,2.60
2022-12-14T04:25:37.099Z,2.58
2022-12-14T04:30:41.505Z,2.47
2022-12-14T04:35:46.399Z,2.65
2022-12-14T04:40:52.870Z,3.20
2022-12-14T04:46:00.321Z,2.63
2022-12-14T04:51:11.652Z,2.80
2022-12-14T04:56:20.477Z,2.80
2022-12-14T05:01:33.517Z,2.70
2022-12-14T05:06:45.452Z,3.13
2022-12-14T05:11:54.984Z,2.80
2022-12-14T05:17:01.255Z,2.40
2022-12-14T05:22:09.019Z,2.60
2022-12-14T05:27:11.900Z,2.50
2022-12-14T05:32:14.859Z,2.08
2022-12-14T05:37:19.077Z,2.35
2022-12-14T05:42:21.932Z,2.20
2022-12-14T05:47:25.968Z,2.35
2022-12-14T05:52:30.259Z,2.22
2022-12-14T05:57:33.279Z,2.17
2022-12-14T06:02:36.287Z,2.58
2022-12-14T06:07:40.669Z,2.67
2022-12-14T06:12:43.621Z,2.40
2022-12-14T06:17:47.392Z,2.88
2022-12-14T06:22:51.531Z,2.75
2022-12-14T06:27:55.485Z,3.80
2022-12-14T06:32:58.290Z,2.72
2022-12-14T06:38:02.457Z,2.67
2022-12-14T06:43:05.493Z,2.90
2022-12-14T06:48:08.419Z,3.03
2022-12-14T06:53:14.328Z,3.08
2022-12-14T06:58:17.126Z,3.83
2022-12-14T07:03:20.023Z,3.47
2022-12-14T07:08:24.215Z,3.30
2022-12-14T07:13:27.352Z,3.45
2022-12-14T07:18:30.451Z,3.50
2022-12-14T07:23:37.361Z,3.55
2022-12-14T07:28:41.081Z,3.15
2022-12-14T07:33:44.411Z,3.05
2022-12-14T07:38:50.634Z,3.10
2022-12-14T07:43:55.772Z,3.22
2022-12-14T07:49:00.421Z,3.20
2022-12-14T07:54:06.316Z,2.90
2022-12-14T07:59:13.022Z,2.95
2022-12-14T08:04:18.276Z,2.72
2022-12-14T08:09:22.545Z,2.92
2022-12-14T08:14:25.340Z,3.00
2022-12-14T08:19:28.140Z,2.80
2022-12-14T08:24:32.298Z,3.08
2022-12-14T08:29:35.074Z,2.30
2022-12-14T08:34:37.917Z,2.67
2022-12-14T08:39:42.086Z,3.10
2022-12-14T08:44:44.913Z,2.33
2022-12-14T08:49:47.726Z,2.40
2022-12-14T08:54:51.953Z,2.58
2022-12-14T09:00:03.238Z,2.58
2022-12-14T09:05:06.761Z,2.35
2022-12-14T09:10:11.297Z,2.70
2022-12-14T09:15:14.109Z,2.58
2022-12-14T09:20:17.301Z,3.00
2022-12-14T09:25:21.517Z,2.70
2022-12-14T09:30:27.046Z,2.60
2022-12-14T09:35:30.070Z,2.83
2022-12-14T09:40:34.871Z,4.40
2022-12-14T09:45:49.567Z,3.08
2022-12-14T09:50:54.197Z,2.90
2022-12-14T09:55:59.793Z,2.65
2022-12-14T10:01:16.160Z,2.40
2022-12-14T10:06:32.745Z,2.45
2022-12-14T10:11:47.021Z,2.83
2022-12-14T10:17:00.277Z,2.63
2022-12-14T10:22:07.847Z,2.58
2022-12-14T10:27:18.975Z,2.75
2022-12-14T10:32:23.458Z,2.42
2022-12-14T10:37:30.866Z,2.88
2022-12-14T10:42:42.308Z,2.58
2022-12-14T10:47:56.987Z,2.90
2022-12-14T10:53:00.934Z,2.42
2022-12-14T10:58:05.719Z,2.72
2022-12-14T11:03:15.562Z,2.20
2022-12-14T11:08:40.518Z,2.22
2022-12-14T11:13:53.694Z,2.63
2022-12-14T11:19:02.035Z,2.22
2022-12-14T11:24:06.560Z,2.45
2022-12-14T11:29:21.452Z,2.10
2022-12-14T11:34:32.304Z,2.40
2022-12-14T11:39:42.866Z,2.42
2022-12-14T11:44:48.721Z,2.20
2022-12-14T11:49:54.254Z,3.13
2022-12-14T11:55:13.825Z,2.40
2022-12-14T12:00:26.426Z,2.05
2022-12-14T12:05:33.036Z,2.35
2022-12-14T12:10:41.367Z,2.13
2022-12-14T12:15:51.336Z,2.25
2022-12-14T12:20:57.599Z,2.40
2022-12-14T12:26:02.145Z,1.90
2022-12-14T12:31:12.556Z,2.33
2022-12-14T12:36:23.538Z,2.20
2022-12-14T12:41:32.547Z,2.38
2022-12-14T12:47:14.843Z,2.28
2022-12-14T12:52:20.247Z,2.00
2022-12-14T12:57:26.972Z,2.10
2022-12-14T13:02:35.441Z,2.35
2022-12-14T13:07:43.095Z,2.35
2022-12-14T13:12:49.367Z,2.00
2022-12-14T13:17:57.817Z,2.15
2022-12-14T13:23:28.259Z,2.38
2022-12-14T13:28:45.086Z,2.33
2022-12-14T13:34:05.572Z,2.15
2022-12-14T13:39:29.291Z,2.22
2022-12-14T13:44:50.277Z,2.20
2022-12-14T13:50:34.221Z,2.35
2022-12-14T13:55:34.733Z,2.88
2022-12-14T14:01:01.439Z,2.83
2022-12-14T14:06:15.632Z,2.45
2022-12-14T14:11:55.236Z,2.58
2022-12-14T14:17:01.230Z,2.20
2022-12-14T14:22:24.680Z,2.35
2022-12-14T14:27:31.838Z,2.33
2022-12-14T14:32:40.497Z,2.65
2022-12-14T14:37:56.847Z,2.20
2022-12-14T14:43:06.576Z,2.20
2022-12-14T14:48:23.117Z,2.00
2022-12-14T14:53:32.910Z,2.85
2022-12-14T14:58:38.303Z,2.75
2022-12-14T15:03:53.433Z,2.60
2022-12-14T15:09:06.195Z,2.22
2022-12-14T15:14:32.424Z,2.35
2022-12-14T15:19:36.766Z,2.30
2022-12-14T15:24:43.124Z,2.65
2022-12-14T15:29:49.565Z,2.40
2022-12-14T15:34:56.691Z,2.15
2022-12-14T15:40:07.037Z,2.28
2022-12-14T15:45:15.126Z,2.30
2022-12-14T15:50:24.816Z,2.40
2022-12-14T15:55:34.244Z,2.38
2022-12-14T16:00:41.492Z,2.30
2022-12-14T16:05:44.994Z,1.83
2022-12-14T16:10:54.638Z,2.95
2022-12-14T16:15:58.726Z,2.03
2022-12-14T16:21:03.788Z,2.25
2022-12-14T16:26:24.734Z,2.40
2022-12-14T16:31:28.740Z,2.10
2022-12-14T16:36:33.759Z,2.78
2022-12-14T16:41:41.003Z,2.13
2022-12-14T16:46:51.271Z,2.55
2022-12-14T16:52:07.317Z,2.30
2022-12-14T16:57:21.561Z,2.03
2022-12-14T17:02:28.969Z,2.20
2022-12-14T17:07:34.182Z,2.38
2022-12-14T17:12:38.391Z,25.67
2022-12-14T17:17:41.634Z,15.15
2022-12-14T17:22:49.388Z,8.35
2022-12-14T17:27:53.984Z,20.35
2022-12-14T17:32:57.010Z,17.52
2022-12-14T17:38:00.415Z,15.30
2022-12-14T17:43:04.562Z,13.50
2022-12-14T17:48:10.613Z,11.38
2022-12-14T17:53:14.606Z,9.85
2022-12-14T17:58:18.772Z,9.70
2022-12-14T18:03:21.734Z,9.27
2022-12-14T18:08:24.869Z,8.00
2022-12-14T18:13:31.173Z,7.72
2022-12-14T18:18:34.500Z,7.78
2022-12-14T18:23:37.378Z,7.28
2022-12-14T18:28:42.404Z,6.75
2022-12-14T18:33:45.376Z,6.40
2022-12-14T18:38:49.462Z,6.38
2022-12-14T18:43:54.422Z,6.43
2022-12-14T18:48:57.323Z,6.03
2022-12-14T18:54:02.272Z,6.30
2022-12-14T18:59:06.465Z,5.97
2022-12-14T19:04:09.783Z,5.30
2022-12-14T19:09:13.766Z,5.05
2022-12-14T19:14:17.880Z,5.50
2022-12-14T19:19:23.556Z,5.00
2022-12-14T19:24:27.835Z,5.68
2022-12-14T19:29:32.065Z,5.80
2022-12-14T19:34:34.862Z,4.80
2022-12-14T19:39:37.705Z,4.80
2022-12-14T19:44:42.015Z,4.97
2022-12-14T19:49:44.864Z,6.30
2022-12-14T19:54:47.753Z,6.20
2022-12-14T19:59:51.979Z,5.53
2022-12-14T20:04:54.847Z,5.30
2022-12-14T20:09:57.701Z,5.72
2022-12-14T20:15:01.860Z,5.07
2022-12-14T20:20:04.843Z,5.50
2022-12-14T20:25:08.032Z,4.80
2022-12-14T20:30:13.432Z,5.20
2022-12-14T20:35:18.637Z,4.30
2022-12-14T20:40:21.684Z,5.03
2022-12-14T20:45:25.946Z,4.85
2022-12-14T20:50:28.809Z,5.03
2022-12-14T20:55:31.692Z,4.38
2022-12-14T21:00:36.732Z,5.43
2022-12-14T21:05:41.589Z,4.47
2022-12-14T21:10:44.385Z,4.50
2022-12-14T21:15:48.556Z,4.50
2022-12-14T21:20:51.389Z,4.10
2022-12-14T21:25:54.225Z,3.75
2022-12-14T21:31:05.070Z,3.90
2022-12-14T21:36:09.084Z,3.95
2022-12-14T21:41:30.261Z,3.70
2022-12-14T21:46:34.921Z,3.72
2022-12-14T21:51:38.542Z,3.53
2022-12-14T21:57:00.396Z,3.75
2022-12-14T22:02:07.667Z,4.25
2022-12-14T22:07:10.608Z,5.10
2022-12-14T22:12:13.949Z,3.88
2022-12-14T22:17:18.325Z,3.60
2022-12-14T22:22:21.176Z,3.53
2022-12-14T22:27:24.084Z,3.45
2022-12-14T22:32:28.299Z,3.42
2022-12-14T22:37:31.265Z,4.00
2022-12-14T22:42:35.820Z,3.78
2022-12-14T22:47:39.972Z,3.38
2022-12-14T22:52:42.765Z,3.20
2022-12-14T22:57:47.276Z,3.58
2022-12-14T23:02:51.566Z,3.70
2022-12-14T23:07:54.454Z,3.38
2022-12-14T23:13:14.770Z,3.40
2022-12-14T23:18:36.412Z,3.22
2022-12-14T23:23:56.925Z,3.10
2022-12-14T23:29:16.999Z,3.15
2022-12-14T23:34:38.952Z,3.20
2022-12-14T23:39:59.174Z,2.90
2022-12-14T23:45:19.710Z,2.90
2022-12-14T23:50:41.561Z,3.03
2022-12-14T23:56:01.750Z,3.00
